Flight Track Log - Related Links

Times and Time Zones

All times are in EDT time to prevent confusion due to time zone crossing. See the CDG4735 flight status page for this flight to view local times or setup timezone preferences in your user account.

Time Position Orientation Groundspeed Altitude Reporting Facility
EDT Latitude Longitude Course Direction KTS MPH feet Rate Location/Type
Wed 02:58:00 AM 25.4976 118.9319 237° Southwest  Level Estimated
Wed 02:59:00 AM 25.4426 118.8409 236° Southwest  Level Estimated
Wed 03:00:00 AM 25.3876 118.7499 236° Southwest  Level Estimated
Wed 03:01:00 AM 25.3326 118.6591 236° Southwest  Level Estimated
Wed 03:02:00 AM 25.2775 118.5683 236° Southwest  Level Estimated
Wed 03:03:00 AM 25.2223 118.4776 236° Southwest  Level Estimated
Wed 03:04:00 AM 25.1671 118.3869 236° Southwest  Level Estimated
Wed 03:05:00 AM 25.1118 118.2964 236° Southwest  Level Estimated
Wed 03:06:00 AM 25.0565 118.2059 236° Southwest  Level Estimated
Wed 03:07:00 AM 25.0011 118.1155 236° Southwest  Level Estimated
Wed 03:08:00 AM 24.9457 118.0253 236° Southwest  Level Estimated
Wed 03:09:00 AM 24.8902 117.9350 236° Southwest  Level Estimated
Wed 03:10:00 AM 24.8347 117.8449 236° Southwest  Level Estimated
Wed 03:11:00 AM 24.7791 117.7548 236° Southwest  Level Estimated
Wed 03:12:00 AM 24.7234 117.6649 236° Southwest  Level Estimated
Wed 03:13:00 AM 24.6677 117.5750 236° Southwest  Level Estimated
Wed 03:14:00 AM 24.6119 117.4852 236° Southwest  Level Estimated
Wed 03:15:00 AM 24.5561 117.3954 236° Southwest  Level Estimated
Wed 03:16:00 AM 24.5002 117.3058 236° Southwest  Level Estimated
Wed 03:17:00 AM 24.4443 117.2162 236° Southwest  Level Estimated
Wed 03:18:00 AM 24.3884 117.1267 236° Southwest  Level Estimated
Wed 03:19:00 AM 24.3323 117.0373 235° Southwest  Level Estimated
Wed 03:20:00 AM 24.2763 116.9479 235° Southwest  Level Estimated
Wed 03:21:00 AM 24.2201 116.8587 235° Southwest  Level Estimated
Wed 03:22:00 AM 24.1639 116.7695 235° Southwest  Level Estimated
Wed 03:23:00 AM 24.1077 116.6804 235° Southwest  Level Estimated
Wed 03:24:00 AM 24.0514 116.5914 235° Southwest  Level Estimated
Wed 03:25:00 AM 23.9951 116.5024 235° Southwest  Level Estimated
Wed 03:26:00 AM 23.9387 116.4136 235° Southwest  Level Estimated
Wed 03:27:00 AM 23.8823 116.3248 235° Southwest  Level Estimated
Wed 03:28:00 AM 23.8258 116.2361 235° Southwest  Level Estimated
Wed 03:29:00 AM 23.7692 116.1474 235° Southwest  Level Estimated
Wed 03:30:00 AM 23.7126 116.0589 235° Southwest  Level Estimated
Wed 03:31:00 AM 23.6560 115.9704 235° Southwest  Level Estimated
Wed 03:32:00 AM 23.5993 115.8820 235° Southwest  Level Estimated
Wed 03:33:00 AM 23.5426 115.7936 235° Southwest  Level Estimated
Wed 03:34:00 AM 23.4858 115.7054 235° Southwest  Level Estimated
Wed 03:35:00 AM 23.4289 115.6172 235° Southwest  Level Estimated
Wed 03:36:00 AM 23.3720 115.5291 235° Southwest  Level Estimated
Wed 03:37:00 AM 23.3151 115.4411 235° Southwest  Level Estimated
Wed 03:38:00 AM 23.2581 115.3531 235° Southwest  Level Estimated
Wed 03:39:00 AM 23.2011 115.2653 235° Southwest  Level Estimated
Wed 03:40:00 AM 23.1440 115.1775 235° Southwest  Level Estimated
Wed 03:41:00 AM 23.0868 115.0898 235° Southwest  Level Estimated
Wed 03:42:00 AM 23.0297 115.0021 235° Southwest  Level Estimated
Wed 03:43:00 AM 22.9724 114.9145 235° Southwest  Level Estimated
Wed 03:44:00 AM 22.9152 114.8270 235° Southwest  Level Estimated
Wed 03:45:00 AM 22.8578 114.7396 235° Southwest  Level Estimated
Wed 03:46:00 AM 22.8004 114.6523 235° Southwest  Level Estimated
Wed 03:47:00 AM 22.7430 114.5650 235° Southwest  Level Estimated
Wed 03:48:00 AM 22.6856 114.4778 234° Southwest  Level Estimated
Wed 03:49:00 AM 22.6280 114.3906 234° Southwest  Level Estimated
Wed 03:50:00 AM 22.5705 114.3036 234° Southwest  Level Estimated
Wed 03:51:00 AM 22.5129 114.2166 234° Southwest  Level Estimated
Wed 03:52:00 AM 22.4552 114.1297 234° Southwest  Level Estimated
Wed 03:53:00 AM 22.3975 114.0428 234° Southwest  Level Estimated
Wed 03:54:00 AM 22.3398 113.9560 234° Southwest  Level Estimated
Wed 03:55:00 AM 22.2819 113.8693 234° Southwest  Level Estimated
Wed 03:56:00 AM 22.2241 113.7827 234° Southwest  Level Estimated
Wed 03:57:00 AM 22.1662 113.6962 234° Southwest  Level Estimated
Wed 03:58:00 AM 22.1083 113.6097 234° Southwest  Level Estimated
Wed 03:59:00 AM 22.0503 113.5233 234° Southwest  Level Estimated
Wed 04:00:00 AM 21.9923 113.4369 234° Southwest  Level Estimated
Wed 04:01:00 AM 21.9342 113.3507 234° Southwest  Level Estimated
Wed 04:02:00 AM 21.8761 113.2645 234° Southwest  Level Estimated
Wed 04:03:00 AM 21.8179 113.1783 234° Southwest  Level Estimated
Wed 04:04:00 AM 21.7597 113.0923 234° Southwest  Level Estimated
Wed 04:05:00 AM 21.7015 113.0063 234° Southwest  Level Estimated
Wed 04:06:00 AM 21.6432 112.9203 234° Southwest  Level Estimated
Wed 04:07:00 AM 21.5849 112.8345 234° Southwest  Level Estimated
Wed 04:08:00 AM 21.5265 112.7487 234° Southwest  Level Estimated
Wed 04:09:00 AM 21.4680 112.6630 234° Southwest  Level Estimated
Wed 04:10:00 AM 21.4096 112.5773 234° Southwest  Level Estimated
Wed 04:11:00 AM 21.3511 112.4918 234° Southwest  Level Estimated
Wed 04:12:00 AM 21.2925 112.4063 234° Southwest  Level Estimated
Wed 04:13:00 AM 21.2339 112.3208 234° Southwest  Level Estimated
Wed 04:14:00 AM 21.1753 112.2355 234° Southwest  Level Estimated
Wed 04:15:00 AM 21.1166 112.1501 234° Southwest  Level Estimated
Wed 04:16:00 AM 21.0578 112.0649 234° Southwest  Level Estimated
Wed 04:17:00 AM 20.9991 111.9797 234° Southwest  Level Estimated
Wed 04:18:00 AM 20.9403 111.8946 234° Southwest  Level Estimated
Wed 04:19:00 AM 20.8814 111.8096 233° Southwest  Level Estimated
Wed 04:20:00 AM 20.8225 111.7246 233° Southwest  Level Estimated
Wed 04:21:00 AM 20.7636 111.6397 233° Southwest  Level Estimated
Wed 04:22:00 AM 20.7046 111.5549 233° Southwest  Level Estimated
Wed 04:23:00 AM 20.6456 111.4701 233° Southwest  Level Estimated
Wed 04:24:00 AM 20.5865 111.3854 233° Southwest  Level Estimated
Wed 04:25:00 AM 20.5274 111.3008 233° Southwest  Level Estimated
Wed 04:26:00 AM 20.4683 111.2162 233° Southwest  Level Estimated
Wed 04:27:00 AM 20.4091 111.1317 233° Southwest  Level Estimated
Wed 04:28:00 AM 20.3498 111.0472 233° Southwest  Level Estimated
Wed 04:29:00 AM 20.2906 110.9629 233° Southwest  Level Estimated
Wed 04:30:00 AM 20.2313 110.8786 233° Southwest  Level Estimated
Wed 04:31:00 AM 20.1719 110.7943 233° Southwest  Level Estimated
Wed 04:32:00 AM 20.1125 110.7101 233° Southwest  Level Estimated
Wed 04:33:00 AM 20.0531 110.6260 233° Southwest  Level Estimated
Wed 04:34:00 AM 19.9936 110.5419 233° Southwest  Level Estimated
Wed 04:35:00 AM 19.9349 110.4590 233° Southwest  Level Estimated
Wed 04:36:00 AM 19.9349 110.4590 North  Level Estimated
Wed 04:37:00 AM 19.9349 110.4590 North  Level Estimated
Wed 04:38:00 AM 19.9349 110.4590 North  Level Estimated
Wed 04:39:00 AM 19.9349 110.4590 North  Level Estimated
Wed 04:40:00 AM 19.9349 110.4590 North  Level Estimated
Wed 04:41:00 AM 19.9349 110.4590 North  Level Estimated
Wed 04:42:00 AM 19.9349 110.4590 North  Level Estimated
Wed 04:43:00 AM 19.9349 110.4590 North  Level Estimated
Wed 04:44:00 AM 19.9349 110.4590 North  Level Estimated
Wed 04:45:00 AM 19.9349 110.4590 North  Level Estimated
Wed 04:46:00 AM 19.9349 110.4590 North  Level Estimated
Wed 04:47:00 AM 19.9349 110.4590 North  Level Estimated
Wed 04:48:00 AM 19.9349 110.4590 North  Level Estimated
Wed 04:49:00 AM 19.9349 110.4590 North  Level Estimated
Wed 04:50:00 AM 19.9349 110.4590 North  Level Estimated
Wed 04:51:00 AM 19.9349 110.4590 North  Level Estimated

Login

Don't have an account? Register now (free) for customized features, flight alerts, and more!